Ana Sayfa
METAR-TAF:

METAR-TAF

Havaalanları :

Gran Canaria Havalimanı

Gran Canaria, İspanya

Enlem: 27-56N, Boylam: 015-23W, yükseklik: 23 m

Güncel hava durumu gözlemi

Rapor saat 08:00 UTC de 24 dakika önce yapıldı.
Rüzgar kuzeydan 23 kt
Sıcaklık 22°C
Nem 73%
Basınç 1017 hPa
Görüş mesafesi 10 km veya daha fazla
2000 ft yükseklikte az bulutlu

METAR: GCLP 200800Z 01023KT 9999 FEW020 22/17 Q1017 NOSIG

Saat: 09:24 (08:24 UTC)

Tahmin

Rapor saat 02:00 UTC de 6 saat ve 24 dakika önce yapıldı.
Ayın 20'si saat 03 UTC'den ayın 21'si saat 03 UTC'ye kadar geçerli Tahmin
Rüzgar kuzeydan 21 kt
Görüş mesafesi 10 km veya daha fazla
2000 ft yükseklikte parçalı bulutlu
Olasılık 40% :
Geçici
ayın 20'si saat 03 UTC'den ayın 21'si saat 03 UTC'ye kadar
Rüzgar kuzeydan 25 kt ve 35 kt'a kadar ani rüzgarlar

TAF: GCLP 200200Z 2003/2103 01021KT 9999 SCT020 TX28/2014Z TN21/2005Z PROB40 TEMPO 2003/2103 01025G35KT

4.000'den fazla havaalanı için hava durumu gözlemleri ve tahminleri (METAR ve TAF raporları).

Kullanılabilir istasyonlar harita üzerinde sarı ve kırmızı noktalarla gösterilir.

İstasyonun adını görmek için fareyi noktanın üzerinde gezdirin.

Sonrasında hava gözlem ve tahminlerini görmek için tıklayın.

Haritayı değiştirmek için: yaklaştırmak için siyah artı işaretli yeşil düğmeye ve uzaklaştırmak için de eksi işaretli düğmeye hızla tıklayın; bitişik haritalar için yeşil okları kullanın.


METAR-TAF: